Powell, Wyoming
Current Conditions -  °F | °C
As of 10:35 PM on Sunday 21 Dec 2014 (Local Time) from KPOY Reporting Station
Clear Clear  
Wind Chill: 23°   Ceiling: Unl
Heat Index: 32°   Visibility: 10mi
Dew Point: 14°   Wind: 13mph
Humidity: 47%   Direction: 300°WNW
Pressure: 29.69"   Gusts: 23mph
Location:  44.75°N, 108.75°W
Report Text: KPOY 220535Z AUTO 30011G20KT 10SM CLR 00/M10 A2969 RMK AO2
Loading
Personal Weather Stations






























Interactive Weather Map New forecast layout! Learn more

10-Day Weather Forecast

Advertisements
Track Severe Weather on mobile